sensor_id;sensor_type;location;lat;lon;timestamp;temperature;humidity
8180;DHT22;4131;48.810;11.892;2023-02-21T00:01:30;2.20;99.90
8180;DHT22;4131;48.810;11.892;2023-02-21T00:04:16;2.20;99.90
8180;DHT22;4131;48.810;11.892;2023-02-21T00:07:01;4.90;99.90
8180;DHT22;4131;48.810;11.892;2023-02-21T00:15:19;2.10;99.90
8180;DHT22;4131;48.810;11.892;2023-02-21T00:18:06;2.20;99.90
8180;DHT22;4131;48.810;11.892;2023-02-21T00:23:39;2.10;99.90
8180;DHT22;4131;48.810;11.892;2023-02-21T00:29:11;2.10;99.90
8180;DHT22;4131;48.810;11.892;2023-02-21T00:31:56;2.00;99.90
8180;DHT22;4131;48.810;11.892;2023-02-21T00:34:43;2.00;99.90
8180;DHT22;4131;48.810;11.892;2023-02-21T00:37:29;2.00;99.90
8180;DHT22;4131;48.810;11.892;2023-02-21T00:40:14;2.00;99.90
8180;DHT22;4131;48.810;11.892;2023-02-21T00:43:00;2.00;99.90
8180;DHT22;4131;48.810;11.892;2023-02-21T00:48:32;2.20;99.90
8180;DHT22;4131;48.810;11.892;2023-02-21T00:51:18;2.10;99.90
8180;DHT22;4131;48.810;11.892;2023-02-21T00:54:04;2.20;99.90
8180;DHT22;4131;48.810;11.892;2023-02-21T00:56:49;2.10;99.90
8180;DHT22;4131;48.810;11.892;2023-02-21T00:59:34;2.00;99.90
8180;DHT22;4131;48.810;11.892;2023-02-21T01:02:20;1.90;99.90
8180;DHT22;4131;48.810;11.892;2023-02-21T01:05:06;1.90;99.90
8180;DHT22;4131;48.810;11.892;2023-02-21T01:07:53;1.90;99.90
8180;DHT22;4131;48.810;11.892;2023-02-21T01:10:39;1.80;99.90
8180;DHT22;4131;48.810;11.892;2023-02-21T01:13:25;1.90;99.90
8180;DHT22;4131;48.810;11.892;2023-02-21T01:16:11;1.90;99.90
8180;DHT22;4131;48.810;11.892;2023-02-21T01:21:43;2.10;99.90
8180;DHT22;4131;48.810;11.892;2023-02-21T01:24:30;2.10;99.90
8180;DHT22;4131;48.810;11.892;2023-02-21T01:27:16;2.10;99.90
8180;DHT22;4131;48.810;11.892;2023-02-21T01:30:03;2.10;99.90
8180;DHT22;4131;48.810;11.892;2023-02-21T01:32:48;2.10;99.90
8180;DHT22;4131;48.810;11.892;2023-02-21T01:41:07;1.90;99.90
8180;DHT22;4131;48.810;11.892;2023-02-21T01:44:02;1.70;99.90
8180;DHT22;4131;48.810;11.892;2023-02-21T01:46:49;1.70;99.90
8180;DHT22;4131;48.810;11.892;2023-02-21T01:49:37;1.70;99.90
8180;DHT22;4131;48.810;11.892;2023-02-21T01:52:23;1.70;99.90
8180;DHT22;4131;48.810;11.892;2023-02-21T01:55:10;1.70;99.90
8180;DHT22;4131;48.810;11.892;2023-02-21T01:57:58;1.70;99.90
8180;DHT22;4131;48.810;11.892;2023-02-21T02:00:43;1.70;99.90
8180;DHT22;4131;48.810;11.892;2023-02-21T02:03:30;1.70;99.90
8180;DHT22;4131;48.810;11.892;2023-02-21T02:06:19;1.70;99.90
8180;DHT22;4131;48.810;11.892;2023-02-21T02:09:16;1.70;99.90
8180;DHT22;4131;48.810;11.892;2023-02-21T02:12:20;1.60;99.90
8180;DHT22;4131;48.810;11.892;2023-02-21T02:15:16;1.60;99.90
8180;DHT22;4131;48.810;11.892;2023-02-21T02:18:12;1.50;99.90
8180;DHT22;4131;48.810;11.892;2023-02-21T02:21:22;1.40;99.90
8180;DHT22;4131;48.810;11.892;2023-02-21T02:24:20;1.40;99.90
8180;DHT22;4131;48.810;11.892;2023-02-21T02:30:27;1.30;99.90
8180;DHT22;4131;48.810;11.892;2023-02-21T02:33:21;1.30;99.90
8180;DHT22;4131;48.810;11.892;2023-02-21T02:35:59;3.80;99.90
8180;DHT22;4131;48.810;11.892;2023-02-21T02:38:34;1.10;99.90
8180;DHT22;4131;48.810;11.892;2023-02-21T02:41:06;1.10;99.90
8180;DHT22;4131;48.810;11.892;2023-02-21T02:43:43;1.10;99.90
8180;DHT22;4131;48.810;11.892;2023-02-21T02:46:16;1.00;99.90
8180;DHT22;4131;48.810;11.892;2023-02-21T02:48:52;1.00;99.90
8180;DHT22;4131;48.810;11.892;2023-02-21T02:51:25;0.90;99.90
8180;DHT22;4131;48.810;11.892;2023-02-21T02:58:57;0.90;99.90
8180;DHT22;4131;48.810;11.892;2023-02-21T03:01:40;1.00;99.90
8180;DHT22;4131;48.810;11.892;2023-02-21T03:04:28;1.00;99.90
8180;DHT22;4131;48.810;11.892;2023-02-21T03:07:06;0.90;99.90
8180;DHT22;4131;48.810;11.892;2023-02-21T03:09:46;0.90;99.90
8180;DHT22;4131;48.810;11.892;2023-02-21T03:12:24;0.90;99.90
8180;DHT22;4131;48.810;11.892;2023-02-21T03:15:02;0.90;99.90
8180;DHT22;4131;48.810;11.892;2023-02-21T03:17:36;0.90;99.90
8180;DHT22;4131;48.810;11.892;2023-02-21T03:20:09;0.90;99.90
8180;DHT22;4131;48.810;11.892;2023-02-21T03:22:42;0.90;99.90
8180;DHT22;4131;48.810;11.892;2023-02-21T03:25:14;1.00;99.90
8180;DHT22;4131;48.810;11.892;2023-02-21T03:30:14;1.00;99.90
8180;DHT22;4131;48.810;11.892;2023-02-21T03:32:46;0.90;99.90
8180;DHT22;4131;48.810;11.892;2023-02-21T03:35:16;0.90;99.90
8180;DHT22;4131;48.810;11.892;2023-02-21T03:37:48;0.80;99.90
8180;DHT22;4131;48.810;11.892;2023-02-21T03:40:21;0.70;99.90
8180;DHT22;4131;48.810;11.892;2023-02-21T03:55:14;0.60;99.90
8180;DHT22;4131;48.810;11.892;2023-02-21T04:21:15;0.30;99.90
8180;DHT22;4131;48.810;11.892;2023-02-21T04:24:03;0.30;99.90
8180;DHT22;4131;48.810;11.892;2023-02-21T04:29:04;0.30;99.90
8180;DHT22;4131;48.810;11.892;2023-02-21T04:36:38;0.20;99.90
8180;DHT22;4131;48.810;11.892;2023-02-21T04:44:05;0.30;99.90
8180;DHT22;4131;48.810;11.892;2023-02-21T04:51:30;0.30;99.90
8180;DHT22;4131;48.810;11.892;2023-02-21T05:01:29;0.30;99.90
8180;DHT22;4131;48.810;11.892;2023-02-21T05:06:29;0.40;99.90
8180;DHT22;4131;48.810;11.892;2023-02-21T05:08:58;0.40;99.90
8180;DHT22;4131;48.810;11.892;2023-02-21T05:16:24;0.30;99.90
8180;DHT22;4131;48.810;11.892;2023-02-21T05:26:27;0.20;99.90
8180;DHT22;4131;48.810;11.892;2023-02-21T05:33:56;0.10;99.90
8180;DHT22;4131;48.810;11.892;2023-02-21T05:38:54;0.10;99.90
8180;DHT22;4131;48.810;11.892;2023-02-21T05:46:22;0.10;99.90
8180;DHT22;4131;48.810;11.892;2023-02-21T05:51:21;0.10;99.90
8180;DHT22;4131;48.810;11.892;2023-02-21T05:56:19;0.10;99.90
8180;DHT22;4131;48.810;11.892;2023-02-21T06:06:13;0.00;99.90
8180;DHT22;4131;48.810;11.892;2023-02-21T06:08:44;-0.10;99.90
8180;DHT22;4131;48.810;11.892;2023-02-21T06:26:05;-0.20;99.90
8180;DHT22;4131;48.810;11.892;2023-02-21T06:31:02;-0.30;99.90
8180;DHT22;4131;48.810;11.892;2023-02-21T06:36:03;-0.30;99.90
8180;DHT22;4131;48.810;11.892;2023-02-21T06:43:30;-0.10;99.90
8180;DHT22;4131;48.810;11.892;2023-02-21T06:55:52;0.40;99.90
8180;DHT22;4131;48.810;11.892;2023-02-21T06:58:23;0.60;99.90
8180;DHT22;4131;48.810;11.892;2023-02-21T07:00:53;0.60;99.90
8180;DHT22;4131;48.810;11.892;2023-02-21T07:03:24;0.70;99.90
8180;DHT22;4131;48.810;11.892;2023-02-21T07:05:52;0.80;99.90
8180;DHT22;4131;48.810;11.892;2023-02-21T07:08:20;0.90;99.90
8180;DHT22;4131;48.810;11.892;2023-02-21T07:13:17;1.20;99.90
8180;DHT22;4131;48.810;11.892;2023-02-21T07:18:17;1.60;99.90
8180;DHT22;4131;48.810;11.892;2023-02-21T07:20:45;1.80;99.90
8180;DHT22;4131;48.810;11.892;2023-02-21T07:23:14;1.90;99.90
8180;DHT22;4131;48.810;11.892;2023-02-21T07:28:11;2.20;99.90
8180;DHT22;4131;48.810;11.892;2023-02-21T07:30:39;2.40;99.90
8180;DHT22;4131;48.810;11.892;2023-02-21T07:33:07;2.50;99.90
8180;DHT22;4131;48.810;11.892;2023-02-21T07:35:37;3.60;99.90
8180;DHT22;4131;48.810;11.892;2023-02-21T07:52:59;4.20;99.90
8180;DHT22;4131;48.810;11.892;2023-02-21T07:55:27;4.30;99.90
8180;DHT22;4131;48.810;11.892;2023-02-21T07:57:55;4.60;99.90
8180;DHT22;4131;48.810;11.892;2023-02-21T08:00:23;4.80;99.90
8180;DHT22;4131;48.810;11.892;2023-02-21T08:02:51;5.00;99.90
8180;DHT22;4131;48.810;11.892;2023-02-21T08:05:20;5.30;99.90
8180;DHT22;4131;48.810;11.892;2023-02-21T08:07:48;5.50;99.90
8180;DHT22;4131;48.810;11.892;2023-02-21T08:10:21;5.70;99.90
8180;DHT22;4131;48.810;11.892;2023-02-21T08:15:17;6.20;99.90
8180;DHT22;4131;48.810;11.892;2023-02-21T08:17:47;6.40;99.90
8180;DHT22;4131;48.810;11.892;2023-02-21T08:20:16;6.50;99.90
8180;DHT22;4131;48.810;11.892;2023-02-21T08:25:14;6.40;99.90
8180;DHT22;4131;48.810;11.892;2023-02-21T08:27:44;6.40;99.90
8180;DHT22;4131;48.810;11.892;2023-02-21T08:30:14;6.50;99.90
8180;DHT22;4131;48.810;11.892;2023-02-21T08:32:43;6.60;99.90
8180;DHT22;4131;48.810;11.892;2023-02-21T08:35:14;6.70;99.90
8180;DHT22;4131;48.810;11.892;2023-02-21T08:37:43;6.90;99.90
8180;DHT22;4131;48.810;11.892;2023-02-21T08:40:12;7.20;99.90
8180;DHT22;4131;48.810;11.892;2023-02-21T08:42:40;7.50;99.90
8180;DHT22;4131;48.810;11.892;2023-02-21T08:45:14;7.80;99.90
8180;DHT22;4131;48.810;11.892;2023-02-21T08:47:42;8.10;99.90
8180;DHT22;4131;48.810;11.892;2023-02-21T08:50:11;8.00;99.90
8180;DHT22;4131;48.810;11.892;2023-02-21T08:52:39;8.10;99.90
8180;DHT22;4131;48.810;11.892;2023-02-21T08:55:07;8.60;99.90
8180;DHT22;4131;48.810;11.892;2023-02-21T09:00:04;8.50;99.90
8180;DHT22;4131;48.810;11.892;2023-02-21T09:02:37;8.50;99.90
8180;DHT22;4131;48.810;11.892;2023-02-21T09:05:07;8.60;99.90
8180;DHT22;4131;48.810;11.892;2023-02-21T09:10:05;8.70;99.90
8180;DHT22;4131;48.810;11.892;2023-02-21T09:15:04;8.40;99.90
8180;DHT22;4131;48.810;11.892;2023-02-21T09:20:04;10.40;99.90
8180;DHT22;4131;48.810;11.892;2023-02-21T09:25:02;9.10;99.90
8180;DHT22;4131;48.810;11.892;2023-02-21T09:27:30;9.10;99.90
8180;DHT22;4131;48.810;11.892;2023-02-21T09:30:06;9.00;99.90
8180;DHT22;4131;48.810;11.892;2023-02-21T09:35:05;8.50;99.90
8180;DHT22;4131;48.810;11.892;2023-02-21T09:37:36;8.50;99.90
8180;DHT22;4131;48.810;11.892;2023-02-21T09:40:09;8.70;99.90
8180;DHT22;4131;48.810;11.892;2023-02-21T09:45:13;8.70;99.90
8180;DHT22;4131;48.810;11.892;2023-02-21T09:47:43;9.00;99.90
8180;DHT22;4131;48.810;11.892;2023-02-21T09:50:18;9.10;99.90
8180;DHT22;4131;48.810;11.892;2023-02-21T09:52:47;9.00;99.90
8180;DHT22;4131;48.810;11.892;2023-02-21T09:55:24;9.00;99.90
8180;DHT22;4131;48.810;11.892;2023-02-21T09:57:56;9.20;99.90
8180;DHT22;4131;48.810;11.892;2023-02-21T10:00:30;9.20;99.90
8180;DHT22;4131;48.810;11.892;2023-02-21T10:03:09;9.10;99.90
8180;DHT22;4131;48.810;11.892;2023-02-21T10:05:44;9.20;99.90
8180;DHT22;4131;48.810;11.892;2023-02-21T10:08:21;9.20;99.90
8180;DHT22;4131;48.810;11.892;2023-02-21T10:10:52;9.20;99.90
8180;DHT22;4131;48.810;11.892;2023-02-21T10:13:34;9.40;99.90
8180;DHT22;4131;48.810;11.892;2023-02-21T10:16:11;9.50;99.90
8180;DHT22;4131;48.810;11.892;2023-02-21T10:18:44;10.00;99.90
8180;DHT22;4131;48.810;11.892;2023-02-21T10:21:21;9.80;99.90
8180;DHT22;4131;48.810;11.892;2023-02-21T10:23:52;9.90;99.90
8180;DHT22;4131;48.810;11.892;2023-02-21T10:26:25;10.00;99.90
8180;DHT22;4131;48.810;11.892;2023-02-21T10:28:55;10.10;99.90
8180;DHT22;4131;48.810;11.892;2023-02-21T10:31:29;10.20;99.90
8180;DHT22;4131;48.810;11.892;2023-02-21T10:36:28;10.20;99.90
8180;DHT22;4131;48.810;11.892;2023-02-21T10:38:58;10.30;99.90
8180;DHT22;4131;48.810;11.892;2023-02-21T10:41:34;10.20;99.90
8180;DHT22;4131;48.810;11.892;2023-02-21T10:44:06;10.40;99.90
8180;DHT22;4131;48.810;11.892;2023-02-21T10:46:39;10.40;99.90
8180;DHT22;4131;48.810;11.892;2023-02-21T10:49:23;10.50;99.90
8180;DHT22;4131;48.810;11.892;2023-02-21T10:52:09;10.40;99.90
8180;DHT22;4131;48.810;11.892;2023-02-21T10:57:09;10.50;99.90
8180;DHT22;4131;48.810;11.892;2023-02-21T10:59:40;10.70;99.90
8180;DHT22;4131;48.810;11.892;2023-02-21T11:02:28;10.90;99.90
8180;DHT22;4131;48.810;11.892;2023-02-21T11:05:08;11.10;99.90
8180;DHT22;4131;48.810;11.892;2023-02-21T11:07:38;11.50;99.90
8180;DHT22;4131;48.810;11.892;2023-02-21T11:10:29;11.80;99.90
8180;DHT22;4131;48.810;11.892;2023-02-21T11:13:06;12.10;99.90
8180;DHT22;4131;48.810;11.892;2023-02-21T11:18:05;12.50;99.90
8180;DHT22;4131;48.810;11.892;2023-02-21T11:23:20;12.70;99.90
8180;DHT22;4131;48.810;11.892;2023-02-21T11:25:52;13.00;99.90
8180;DHT22;4131;48.810;11.892;2023-02-21T11:28:24;12.60;99.90
8180;DHT22;4131;48.810;11.892;2023-02-21T11:31:05;12.70;99.90
8180;DHT22;4131;48.810;11.892;2023-02-21T11:33:40;12.70;99.90
8180;DHT22;4131;48.810;11.892;2023-02-21T11:36:13;13.60;99.90
8180;DHT22;4131;48.810;11.892;2023-02-21T11:38:45;13.70;99.90
8180;DHT22;4131;48.810;11.892;2023-02-21T11:41:28;13.60;99.90
8180;DHT22;4131;48.810;11.892;2023-02-21T11:46:34;15.30;99.90
8180;DHT22;4131;48.810;11.892;2023-02-21T11:49:07;16.60;99.90
8180;DHT22;4131;48.810;11.892;2023-02-21T11:51:42;16.20;99.90
8180;DHT22;4131;48.810;11.892;2023-02-21T11:54:14;16.30;99.90
8180;DHT22;4131;48.810;11.892;2023-02-21T11:56:48;16.60;99.90
8180;DHT22;4131;48.810;11.892;2023-02-21T11:59:28;16.90;99.90
8180;DHT22;4131;48.810;11.892;2023-02-21T12:02:17;17.00;99.90
8180;DHT22;4131;48.810;11.892;2023-02-21T12:04:59;16.60;99.90
8180;DHT22;4131;48.810;11.892;2023-02-21T12:07:34;16.70;99.90
8180;DHT22;4131;48.810;11.892;2023-02-21T12:10:23;17.00;99.90
8180;DHT22;4131;48.810;11.892;2023-02-21T12:12:58;16.70;99.90
8180;DHT22;4131;48.810;11.892;2023-02-21T12:15:35;16.40;99.90
8180;DHT22;4131;48.810;11.892;2023-02-21T12:18:25;16.60;99.90
8180;DHT22;4131;48.810;11.892;2023-02-21T12:21:15;15.70;99.90
8180;DHT22;4131;48.810;11.892;2023-02-21T12:23:50;16.20;99.90
8180;DHT22;4131;48.810;11.892;2023-02-21T12:26:31;16.60;99.90
8180;DHT22;4131;48.810;11.892;2023-02-21T12:29:11;16.40;99.90
8180;DHT22;4131;48.810;11.892;2023-02-21T12:31:54;16.20;99.90
8180;DHT22;4131;48.810;11.892;2023-02-21T12:34:33;17.40;99.90
8180;DHT22;4131;48.810;11.892;2023-02-21T12:37:13;17.20;99.90
8180;DHT22;4131;48.810;11.892;2023-02-21T12:39:57;18.10;99.90
8180;DHT22;4131;48.810;11.892;2023-02-21T12:42:43;18.20;99.90
8180;DHT22;4131;48.810;11.892;2023-02-21T12:45:28;18.40;99.90
8180;DHT22;4131;48.810;11.892;2023-02-21T12:48:04;17.80;99.90
8180;DHT22;4131;48.810;11.892;2023-02-21T12:50:37;18.90;99.90
8180;DHT22;4131;48.810;11.892;2023-02-21T12:53:11;18.70;99.90
8180;DHT22;4131;48.810;11.892;2023-02-21T12:55:44;18.90;99.90
8180;DHT22;4131;48.810;11.892;2023-02-21T12:58:19;18.30;99.90
8180;DHT22;4131;48.810;11.892;2023-02-21T13:00:53;18.80;99.90
8180;DHT22;4131;48.810;11.892;2023-02-21T13:03:38;20.20;99.90
8180;DHT22;4131;48.810;11.892;2023-02-21T13:06:12;20.10;99.90
8180;DHT22;4131;48.810;11.892;2023-02-21T13:08:49;19.20;99.90
8180;DHT22;4131;48.810;11.892;2023-02-21T13:11:24;19.60;99.90
8180;DHT22;4131;48.810;11.892;2023-02-21T13:13:55;20.50;99.90
8180;DHT22;4131;48.810;11.892;2023-02-21T13:16:25;20.10;99.90
8180;DHT22;4131;48.810;11.892;2023-02-21T13:18:55;20.90;99.90
8180;DHT22;4131;48.810;11.892;2023-02-21T13:21:35;21.30;99.90
8180;DHT22;4131;48.810;11.892;2023-02-21T13:24:14;20.60;99.90
8180;DHT22;4131;48.810;11.892;2023-02-21T13:26:56;21.20;99.90
8180;DHT22;4131;48.810;11.892;2023-02-21T13:29:29;21.60;99.90
8180;DHT22;4131;48.810;11.892;2023-02-21T13:31:59;21.30;99.90
8180;DHT22;4131;48.810;11.892;2023-02-21T13:34:35;21.40;99.90
8180;DHT22;4131;48.810;11.892;2023-02-21T13:37:06;21.20;99.90
8180;DHT22;4131;48.810;11.892;2023-02-21T13:39:35;21.10;99.90
8180;DHT22;4131;48.810;11.892;2023-02-21T13:42:07;20.40;99.90
8180;DHT22;4131;48.810;11.892;2023-02-21T13:44:38;20.70;99.90
8180;DHT22;4131;48.810;11.892;2023-02-21T13:47:10;20.70;99.90
8180;DHT22;4131;48.810;11.892;2023-02-21T13:49:48;20.50;99.90
8180;DHT22;4131;48.810;11.892;2023-02-21T13:55:25;19.20;99.90
8180;DHT22;4131;48.810;11.892;2023-02-21T13:58:27;18.00;99.90
8180;DHT22;4131;48.810;11.892;2023-02-21T14:07:49;16.00;99.90
8180;DHT22;4131;48.810;11.892;2023-02-21T14:10:42;15.40;99.90
8180;DHT22;4131;48.810;11.892;2023-02-21T14:13:20;15.20;99.90
8180;DHT22;4131;48.810;11.892;2023-02-21T14:15:56;14.80;99.90
8180;DHT22;4131;48.810;11.892;2023-02-21T14:18:28;14.70;99.90
8180;DHT22;4131;48.810;11.892;2023-02-21T14:20:58;14.70;99.90
8180;DHT22;4131;48.810;11.892;2023-02-21T14:23:38;14.70;99.90
8180;DHT22;4131;48.810;11.892;2023-02-21T14:26:39;14.60;99.90
8180;DHT22;4131;48.810;11.892;2023-02-21T14:32:14;14.80;99.90
8180;DHT22;4131;48.810;11.892;2023-02-21T14:34:52;14.70;99.90
8180;DHT22;4131;48.810;11.892;2023-02-21T14:37:24;14.80;99.90
8180;DHT22;4131;48.810;11.892;2023-02-21T14:39:57;14.80;99.90
8180;DHT22;4131;48.810;11.892;2023-02-21T14:42:45;14.50;99.90
8180;DHT22;4131;48.810;11.892;2023-02-21T14:45:28;14.40;99.90
8180;DHT22;4131;48.810;11.892;2023-02-21T14:48:36;14.20;99.90
8180;DHT22;4131;48.810;11.892;2023-02-21T14:57:26;14.00;99.90
8180;DHT22;4131;48.810;11.892;2023-02-21T15:00:07;14.00;99.90
8180;DHT22;4131;48.810;11.892;2023-02-21T15:02:45;14.00;99.90
8180;DHT22;4131;48.810;11.892;2023-02-21T15:05:18;13.90;99.90
8180;DHT22;4131;48.810;11.892;2023-02-21T15:07:55;14.00;99.90
8180;DHT22;4131;48.810;11.892;2023-02-21T15:10:26;14.20;99.90
8180;DHT22;4131;48.810;11.892;2023-02-21T15:12:55;14.60;99.90
8180;DHT22;4131;48.810;11.892;2023-02-21T15:15:26;14.60;99.90
8180;DHT22;4131;48.810;11.892;2023-02-21T15:18:02;14.40;99.90
8180;DHT22;4131;48.810;11.892;2023-02-21T15:20:31;14.30;99.90
8180;DHT22;4131;48.810;11.892;2023-02-21T15:23:10;14.20;99.90
8180;DHT22;4131;48.810;11.892;2023-02-21T15:28:19;14.30;99.90
8180;DHT22;4131;48.810;11.892;2023-02-21T15:30:57;14.30;99.90
8180;DHT22;4131;48.810;11.892;2023-02-21T15:33:29;14.20;99.90
8180;DHT22;4131;48.810;11.892;2023-02-21T15:36:00;13.90;99.90
8180;DHT22;4131;48.810;11.892;2023-02-21T15:38:33;13.70;99.90
8180;DHT22;4131;48.810;11.892;2023-02-21T15:41:07;13.50;99.90
8180;DHT22;4131;48.810;11.892;2023-02-21T15:43:46;13.20;99.90
8180;DHT22;4131;48.810;11.892;2023-02-21T15:46:18;13.10;99.90
8180;DHT22;4131;48.810;11.892;2023-02-21T15:48:48;13.00;99.90
8180;DHT22;4131;48.810;11.892;2023-02-21T15:54:08;12.80;99.90
8180;DHT22;4131;48.810;11.892;2023-02-21T15:59:10;12.50;99.90
8180;DHT22;4131;48.810;11.892;2023-02-21T16:01:39;12.50;99.90
8180;DHT22;4131;48.810;11.892;2023-02-21T16:04:16;12.50;99.90
8180;DHT22;4131;48.810;11.892;2023-02-21T16:06:48;12.40;99.90
8180;DHT22;4131;48.810;11.892;2023-02-21T16:09:24;12.30;99.90
8180;DHT22;4131;48.810;11.892;2023-02-21T16:11:56;12.20;99.90
8180;DHT22;4131;48.810;11.892;2023-02-21T16:14:34;12.10;99.90
8180;DHT22;4131;48.810;11.892;2023-02-21T16:19:59;11.80;99.90
8180;DHT22;4131;48.810;11.892;2023-02-21T16:22:31;11.70;99.90
8180;DHT22;4131;48.810;11.892;2023-02-21T16:25:18;11.60;99.90
8180;DHT22;4131;48.810;11.892;2023-02-21T16:27:48;11.50;99.90
8180;DHT22;4131;48.810;11.892;2023-02-21T16:30:19;11.30;99.90
8180;DHT22;4131;48.810;11.892;2023-02-21T16:32:48;11.20;99.90
8180;DHT22;4131;48.810;11.892;2023-02-21T16:35:19;11.00;99.90
8180;DHT22;4131;48.810;11.892;2023-02-21T16:37:48;10.90;99.90
8180;DHT22;4131;48.810;11.892;2023-02-21T16:40:20;10.80;99.90
8180;DHT22;4131;48.810;11.892;2023-02-21T16:42:49;10.60;99.90
8180;DHT22;4131;48.810;11.892;2023-02-21T16:45:18;10.40;99.90
8180;DHT22;4131;48.810;11.892;2023-02-21T16:47:47;10.30;99.90
8180;DHT22;4131;48.810;11.892;2023-02-21T16:50:18;10.10;99.90
8180;DHT22;4131;48.810;11.892;2023-02-21T16:52:47;10.10;99.90
8180;DHT22;4131;48.810;11.892;2023-02-21T16:55:16;9.90;99.90
8180;DHT22;4131;48.810;11.892;2023-02-21T16:57:49;9.80;99.90
8180;DHT22;4131;48.810;11.892;2023-02-21T17:00:21;9.60;99.90
8180;DHT22;4131;48.810;11.892;2023-02-21T17:02:50;9.60;99.90
8180;DHT22;4131;48.810;11.892;2023-02-21T17:05:19;9.40;99.90
8180;DHT22;4131;48.810;11.892;2023-02-21T17:07:48;9.20;99.90
8180;DHT22;4131;48.810;11.892;2023-02-21T17:10:18;9.10;99.90
8180;DHT22;4131;48.810;11.892;2023-02-21T17:12:47;9.00;99.90
8180;DHT22;4131;48.810;11.892;2023-02-21T17:15:15;9.00;99.90
8180;DHT22;4131;48.810;11.892;2023-02-21T17:25:16;8.60;99.90
8180;DHT22;4131;48.810;11.892;2023-02-21T17:30:15;8.40;99.90
8180;DHT22;4131;48.810;11.892;2023-02-21T17:32:44;8.30;99.90
8180;DHT22;4131;48.810;11.892;2023-02-21T17:35:12;8.30;99.90
8180;DHT22;4131;48.810;11.892;2023-02-21T17:40:11;8.00;99.90
8180;DHT22;4131;48.810;11.892;2023-02-21T17:42:39;8.00;99.90
8180;DHT22;4131;48.810;11.892;2023-02-21T17:45:08;7.90;99.90
8180;DHT22;4131;48.810;11.892;2023-02-21T17:47:37;7.80;99.90
8180;DHT22;4131;48.810;11.892;2023-02-21T17:50:06;7.70;99.90
8180;DHT22;4131;48.810;11.892;2023-02-21T17:55:03;7.50;99.90
8180;DHT22;4131;48.810;11.892;2023-02-21T18:00:06;7.30;99.90
8180;DHT22;4131;48.810;11.892;2023-02-21T18:02:39;7.30;99.90
8180;DHT22;4131;48.810;11.892;2023-02-21T18:05:07;7.20;99.90
8180;DHT22;4131;48.810;11.892;2023-02-21T18:07:35;7.10;99.90
8180;DHT22;4131;48.810;11.892;2023-02-21T18:10:04;7.10;99.90
8180;DHT22;4131;48.810;11.892;2023-02-21T18:12:33;7.00;99.90
8180;DHT22;4131;48.810;11.892;2023-02-21T18:15:01;6.90;99.90
8180;DHT22;4131;48.810;11.892;2023-02-21T18:19:58;6.80;99.90
8180;DHT22;4131;48.810;11.892;2023-02-21T18:22:27;6.70;99.90
8180;DHT22;4131;48.810;11.892;2023-02-21T18:24:55;6.60;99.90
8180;DHT22;4131;48.810;11.892;2023-02-21T18:27:23;6.50;99.90
8180;DHT22;4131;48.810;11.892;2023-02-21T18:29:51;6.50;99.90
8180;DHT22;4131;48.810;11.892;2023-02-21T18:32:22;6.50;99.90
8180;DHT22;4131;48.810;11.892;2023-02-21T18:34:50;6.40;99.90
8180;DHT22;4131;48.810;11.892;2023-02-21T18:37:19;6.30;99.90
8180;DHT22;4131;48.810;11.892;2023-02-21T18:39:50;6.30;99.90
8180;DHT22;4131;48.810;11.892;2023-02-21T18:42:19;6.10;99.90
8180;DHT22;4131;48.810;11.892;2023-02-21T18:44:49;6.00;99.90
8180;DHT22;4131;48.810;11.892;2023-02-21T18:47:17;5.90;99.90
8180;DHT22;4131;48.810;11.892;2023-02-21T18:49:46;5.80;99.90
8180;DHT22;4131;48.810;11.892;2023-02-21T18:52:14;5.70;99.90
8180;DHT22;4131;48.810;11.892;2023-02-21T18:54:45;5.60;99.90
8180;DHT22;4131;48.810;11.892;2023-02-21T18:57:15;5.60;99.90
8180;DHT22;4131;48.810;11.892;2023-02-21T18:59:43;5.50;99.90
8180;DHT22;4131;48.810;11.892;2023-02-21T19:02:12;5.40;99.90
8180;DHT22;4131;48.810;11.892;2023-02-21T19:07:10;5.30;99.90
8180;DHT22;4131;48.810;11.892;2023-02-21T19:09:39;5.20;99.90
8180;DHT22;4131;48.810;11.892;2023-02-21T19:12:09;5.20;99.90
8180;DHT22;4131;48.810;11.892;2023-02-21T19:14:37;5.10;99.90
8180;DHT22;4131;48.810;11.892;2023-02-21T19:17:06;5.10;99.90
8180;DHT22;4131;48.810;11.892;2023-02-21T19:19:35;5.00;99.90
8180;DHT22;4131;48.810;11.892;2023-02-21T19:22:03;4.90;99.90
8180;DHT22;4131;48.810;11.892;2023-02-21T19:24:31;4.90;99.90
8180;DHT22;4131;48.810;11.892;2023-02-21T19:26:59;4.80;99.90
8180;DHT22;4131;48.810;11.892;2023-02-21T19:29:29;4.70;99.90
8180;DHT22;4131;48.810;11.892;2023-02-21T19:31:57;4.70;99.90
8180;DHT22;4131;48.810;11.892;2023-02-21T19:34:25;4.60;99.90
8180;DHT22;4131;48.810;11.892;2023-02-21T19:39:21;4.50;99.90
8180;DHT22;4131;48.810;11.892;2023-02-21T19:41:49;4.40;99.90
8180;DHT22;4131;48.810;11.892;2023-02-21T19:44:17;4.40;99.90
8180;DHT22;4131;48.810;11.892;2023-02-21T19:46:47;4.30;99.90
8180;DHT22;4131;48.810;11.892;2023-02-21T19:49:15;4.30;99.90
8180;DHT22;4131;48.810;11.892;2023-02-21T19:51:44;4.20;99.90
8180;DHT22;4131;48.810;11.892;2023-02-21T19:54:15;4.20;99.90
8180;DHT22;4131;48.810;11.892;2023-02-21T19:56:43;4.10;99.90
8180;DHT22;4131;48.810;11.892;2023-02-21T19:59:11;4.00;99.90
8180;DHT22;4131;48.810;11.892;2023-02-21T20:01:40;4.10;99.90
8180;DHT22;4131;48.810;11.892;2023-02-21T20:04:09;4.10;99.90
8180;DHT22;4131;48.810;11.892;2023-02-21T20:06:38;4.10;99.90
8180;DHT22;4131;48.810;11.892;2023-02-21T20:09:07;4.00;99.90
8180;DHT22;4131;48.810;11.892;2023-02-21T20:11:35;3.90;99.90
8180;DHT22;4131;48.810;11.892;2023-02-21T20:14:06;3.90;99.90
8180;DHT22;4131;48.810;11.892;2023-02-21T20:16:37;3.90;99.90
8180;DHT22;4131;48.810;11.892;2023-02-21T20:21:36;3.80;99.90
8180;DHT22;4131;48.810;11.892;2023-02-21T20:24:04;3.80;99.90
8180;DHT22;4131;48.810;11.892;2023-02-21T20:26:33;3.80;99.90
8180;DHT22;4131;48.810;11.892;2023-02-21T20:29:01;3.80;99.90
8180;DHT22;4131;48.810;11.892;2023-02-21T20:31:30;3.70;99.90
8180;DHT22;4131;48.810;11.892;2023-02-21T20:34:01;3.70;99.90
8180;DHT22;4131;48.810;11.892;2023-02-21T20:36:32;3.60;99.90
8180;DHT22;4131;48.810;11.892;2023-02-21T20:39:02;3.60;99.90
8180;DHT22;4131;48.810;11.892;2023-02-21T20:41:33;3.50;99.90
8180;DHT22;4131;48.810;11.892;2023-02-21T20:44:05;3.50;99.90
8180;DHT22;4131;48.810;11.892;2023-02-21T20:46:33;3.50;99.90
8180;DHT22;4131;48.810;11.892;2023-02-21T20:49:04;3.40;99.90
8180;DHT22;4131;48.810;11.892;2023-02-21T20:51:36;3.40;99.90
8180;DHT22;4131;48.810;11.892;2023-02-21T20:54:06;3.30;99.90
8180;DHT22;4131;48.810;11.892;2023-02-21T20:56:38;3.30;99.90
8180;DHT22;4131;48.810;11.892;2023-02-21T20:59:09;3.20;99.90
8180;DHT22;4131;48.810;11.892;2023-02-21T21:01:41;3.20;99.90
8180;DHT22;4131;48.810;11.892;2023-02-21T21:04:14;3.10;99.90
8180;DHT22;4131;48.810;11.892;2023-02-21T21:09:13;3.00;99.90
8180;DHT22;4131;48.810;11.892;2023-02-21T21:11:44;3.00;99.90
8180;DHT22;4131;48.810;11.892;2023-02-21T21:21:40;2.90;99.90
8180;DHT22;4131;48.810;11.892;2023-02-21T21:24:08;2.80;99.90
8180;DHT22;4131;48.810;11.892;2023-02-21T21:26:43;2.80;99.90
8180;DHT22;4131;48.810;11.892;2023-02-21T21:29:16;2.80;99.90
8180;DHT22;4131;48.810;11.892;2023-02-21T21:31:46;2.80;99.90
8180;DHT22;4131;48.810;11.892;2023-02-21T21:34:17;2.80;99.90
8180;DHT22;4131;48.810;11.892;2023-02-21T21:36:49;2.70;99.90